createdAt,value
2017-12-10T11:28:52.172Z,952.6
2017-12-10T11:29:54.717Z,952.6
2017-12-10T11:30:57.667Z,952.5
2017-12-10T11:32:08.663Z,952.2
2017-12-10T11:33:12.162Z,952.4
2017-12-10T11:34:22.042Z,952.3
2017-12-10T11:35:32.148Z,952
2017-12-10T11:36:36.598Z,952.3
2017-12-10T11:37:40.291Z,952.2
2017-12-10T11:38:47.322Z,952.1
2017-12-10T11:39:52.797Z,952.1
2017-12-10T11:40:55.473Z,952.1
2017-12-10T11:41:58.989Z,952
2017-12-10T11:43:03.759Z,951.9
2017-12-10T11:44:17.456Z,951.8
2017-12-10T11:45:26.588Z,951.7
2017-12-10T11:46:30.953Z,951.6
2017-12-10T11:47:39.314Z,951.5
2017-12-10T11:48:47.735Z,951.5
2017-12-10T11:49:53.246Z,951.3
2017-12-10T11:50:58.346Z,951.2
2017-12-10T11:52:04.997Z,951.3
2017-12-10T11:53:11.910Z,951.3
2017-12-10T11:54:17.862Z,951.2
2017-12-10T11:55:22.173Z,951.1
2017-12-10T11:56:40.478Z,951
2017-12-10T11:57:48.484Z,950.9
2017-12-10T11:58:57.756Z,950.9
2017-12-10T12:00:05.281Z,951
2017-12-10T12:01:08.270Z,951
2017-12-10T12:02:25.234Z,951
2017-12-10T12:03:37.470Z,950.9
2017-12-10T12:04:40.726Z,950.9
2017-12-10T12:05:44.314Z,950.7
2017-12-10T12:06:47.392Z,950.8
2017-12-10T12:07:50.901Z,950.7
2017-12-10T12:08:56.204Z,950.6
2017-12-10T12:09:59.174Z,950.6
2017-12-10T12:11:06.884Z,950.6
2017-12-10T12:12:33.649Z,950.6
2017-12-10T12:13:56.363Z,950.5
2017-12-10T12:14:59.750Z,950.3
2017-12-10T12:16:07.751Z,950.4
2017-12-10T12:17:15.506Z,950.4
2017-12-10T12:18:20.345Z,950.2
2017-12-10T12:19:27.893Z,950.2
2017-12-10T12:20:38.244Z,950.2
2017-12-10T12:21:43.123Z,950.1
2017-12-10T12:22:56.866Z,950
2017-12-10T12:24:06.468Z,949.8
2017-12-10T12:25:11.986Z,949.8
2017-12-10T12:26:18.074Z,949.7
2017-12-10T12:27:25.560Z,949.5
2017-12-10T12:28:29.096Z,949.4
2017-12-10T12:29:39.836Z,949.4
2017-12-10T12:30:45.000Z,949.6
2017-12-10T12:31:48.093Z,949.6
2017-12-10T12:32:55.572Z,949.5
2017-12-10T12:34:00.511Z,949.3
2017-12-10T12:35:04.053Z,949.4
2017-12-10T12:36:13.484Z,949.3
2017-12-10T12:38:36.059Z,949.3
2017-12-10T12:39:39.671Z,949.2
2017-12-10T12:40:44.986Z,949.3
2017-12-10T12:41:54.151Z,949.1
2017-12-10T12:42:57.098Z,948.9
2017-12-10T12:43:59.702Z,949.2
2017-12-10T12:45:03.101Z,949
2017-12-10T12:46:06.716Z,949.1
2017-12-10T12:47:10.205Z,949
2017-12-10T12:48:14.313Z,948.9
2017-12-10T12:49:21.754Z,948.9
2017-12-10T12:50:26.076Z,948.9
2017-12-10T12:51:29.744Z,948.9
2017-12-10T12:52:34.821Z,948.8
2017-12-10T12:53:38.004Z,948.9
